createdAt,value
2022-12-26T00:00:51.836Z,1.04
2022-12-26T00:01:51.782Z,1.04
2022-12-26T00:02:52.011Z,1.04
2022-12-26T00:03:52.379Z,1.04
2022-12-26T00:04:53.456Z,1.04
2022-12-26T00:05:52.344Z,1.04
2022-12-26T00:06:52.501Z,1.04
2022-12-26T00:07:52.651Z,1.04
2022-12-26T00:08:52.798Z,1.04
2022-12-26T00:09:52.901Z,1.04
2022-12-26T00:10:53.066Z,1.04
2022-12-26T00:11:53.222Z,1.04
2022-12-26T00:12:53.362Z,1.04
2022-12-26T00:13:53.509Z,1.04
2022-12-26T00:14:53.629Z,1.04
2022-12-26T00:15:53.765Z,1.04
2022-12-26T00:16:53.908Z,1.04
2022-12-26T00:17:54.067Z,1.04
2022-12-26T00:18:54.255Z,1.04
2022-12-26T00:19:54.317Z,1.04
2022-12-26T00:20:54.424Z,1.04
2022-12-26T00:21:54.572Z,1.04
2022-12-26T00:22:54.908Z,1.04
2022-12-26T00:23:54.858Z,1.04
2022-12-26T00:24:55.046Z,1.04
2022-12-26T00:25:55.185Z,1.04
2022-12-26T00:26:55.343Z,1.04
2022-12-26T00:27:55.495Z,1.04
2022-12-26T00:28:55.635Z,1.04
2022-12-26T00:29:55.796Z,1.04
2022-12-26T00:30:55.915Z,1.04
2022-12-26T00:31:56.166Z,1.04
2022-12-26T00:32:56.242Z,1.04
2022-12-26T00:33:56.334Z,1.04
2022-12-26T00:34:56.490Z,1.04
2022-12-26T00:35:56.658Z,1.04
2022-12-26T00:36:56.801Z,1.04
2022-12-26T00:37:56.950Z,1.04
2022-12-26T00:38:57.091Z,1.04
2022-12-26T00:39:57.240Z,1.04
2022-12-26T00:40:57.399Z,1.04
2022-12-26T00:41:57.546Z,1.04
2022-12-26T00:42:57.646Z,1.04
2022-12-26T00:43:57.798Z,1.04
2022-12-26T00:44:57.965Z,1.04
2022-12-26T00:45:58.098Z,1.04
2022-12-26T00:46:58.319Z,1.04
2022-12-26T00:47:58.419Z,1.04
2022-12-26T00:48:58.556Z,1.04
2022-12-26T00:50:11.175Z,1.04
2022-12-26T00:50:58.877Z,1.04
2022-12-26T00:51:59.020Z,1.04
2022-12-26T00:52:59.162Z,1.04
2022-12-26T00:53:59.318Z,1.04
2022-12-26T00:54:59.508Z,1.04
2022-12-26T00:55:59.635Z,1.04
2022-12-26T00:56:59.778Z,1.04
2022-12-26T00:57:59.924Z,1.04
2022-12-26T00:59:00.086Z,1.04
2022-12-26T01:00:00.243Z,1.04
2022-12-26T01:01:00.451Z,1.04
2022-12-26T01:02:00.707Z,1.04
2022-12-26T01:03:00.692Z,1.04
2022-12-26T01:04:00.804Z,1.04
2022-12-26T01:05:00.925Z,1.04
2022-12-26T01:06:01.084Z,1.04
2022-12-26T01:07:01.231Z,1.04
2022-12-26T01:08:20.623Z,1.04
2022-12-26T01:09:01.488Z,1.04
2022-12-26T01:10:01.726Z,1.04
2022-12-26T01:11:01.740Z,1.04
2022-12-26T01:12:01.904Z,1.04
2022-12-26T01:13:01.999Z,1.04
2022-12-26T01:14:02.117Z,1.04
2022-12-26T01:15:02.243Z,1.04
2022-12-26T01:16:02.450Z,1.04
2022-12-26T01:17:02.495Z,1.04
2022-12-26T01:18:02.668Z,1.04
2022-12-26T01:19:02.870Z,1.04
2022-12-26T01:20:02.957Z,1.04
2022-12-26T01:21:03.114Z,1.04
2022-12-26T01:22:03.206Z,1.04
2022-12-26T01:23:03.366Z,1.04
2022-12-26T01:24:03.516Z,1.04
2022-12-26T01:25:03.659Z,1.04
2022-12-26T01:26:16.294Z,1.04
2022-12-26T01:27:03.956Z,1.04
2022-12-26T01:28:04.110Z,1.04
2022-12-26T01:29:04.270Z,1.04
2022-12-26T01:30:04.429Z,1.04
2022-12-26T01:31:04.550Z,1.04
2022-12-26T01:32:04.784Z,1.04
2022-12-26T01:33:04.843Z,1.04
2022-12-26T01:34:05.030Z,1.04
2022-12-26T01:35:05.162Z,1.04
2022-12-26T01:36:05.295Z,1.04
2022-12-26T01:37:05.441Z,1.04
2022-12-26T01:38:05.526Z,1.04
2022-12-26T01:39:05.656Z,1.04
2022-12-26T01:40:05.791Z,1.04
2022-12-26T01:41:05.937Z,1.04
2022-12-26T01:42:06.087Z,1.04
2022-12-26T01:43:06.232Z,1.04
2022-12-26T01:44:06.343Z,1.04
2022-12-26T01:45:06.498Z,1.04
2022-12-26T01:46:06.671Z,1.04
2022-12-26T01:47:06.760Z,1.04
2022-12-26T01:48:06.897Z,1.04
2022-12-26T01:49:07.059Z,1.04
2022-12-26T01:50:07.196Z,1.04
2022-12-26T01:51:07.351Z,1.04
2022-12-26T01:52:07.509Z,1.04
2022-12-26T01:53:07.652Z,1.04
2022-12-26T01:54:38.671Z,1.04
2022-12-26T01:55:07.919Z,1.04
2022-12-26T01:56:08.056Z,1.04
2022-12-26T01:57:08.201Z,1.04
2022-12-26T01:58:08.369Z,1.04
2022-12-26T01:59:08.519Z,1.04
2022-12-26T02:00:08.640Z,1.04
2022-12-26T02:01:08.890Z,1.04
2022-12-26T02:02:09.038Z,1.04
2022-12-26T02:03:09.083Z,1.04
2022-12-26T02:04:09.170Z,1.04
2022-12-26T02:05:09.311Z,1.04
2022-12-26T02:06:09.424Z,1.04
2022-12-26T02:07:09.518Z,1.04
2022-12-26T02:08:09.683Z,1.04
2022-12-26T02:09:09.831Z,1.04
2022-12-26T02:10:09.951Z,1.04
2022-12-26T02:11:10.113Z,1.04
2022-12-26T02:12:33.385Z,1.04
2022-12-26T02:13:10.709Z,1.04
2022-12-26T02:14:10.857Z,1.04
2022-12-26T02:15:11.241Z,1.04
2022-12-26T02:16:10.970Z,1.04
2022-12-26T02:17:11.325Z,1.04
2022-12-26T02:18:11.464Z,1.04
2022-12-26T02:19:11.621Z,1.04
2022-12-26T02:20:11.786Z,1.04
2022-12-26T02:21:11.916Z,1.04
2022-12-26T02:22:12.068Z,1.04
2022-12-26T02:23:12.230Z,1.04
2022-12-26T02:24:12.023Z,1.04
2022-12-26T02:25:12.135Z,1.04
2022-12-26T02:26:12.337Z,1.04
2022-12-26T02:27:12.784Z,1.04
2022-12-26T02:28:12.649Z,1.04
2022-12-26T02:29:12.815Z,1.04
2022-12-26T02:30:12.964Z,1.04
2022-12-26T02:31:13.096Z,1.04
2022-12-26T02:32:13.279Z,1.04
2022-12-26T02:33:13.406Z,1.04
2022-12-26T02:34:13.566Z,1.04
2022-12-26T02:35:13.708Z,1.04
2022-12-26T02:36:13.870Z,1.04
2022-12-26T02:37:13.963Z,1.04
2022-12-26T02:38:14.130Z,1.04
2022-12-26T02:39:42.856Z,1.04
2022-12-26T02:40:14.423Z,1.04
2022-12-26T02:41:14.568Z,1.04
2022-12-26T02:42:14.743Z,1.04
2022-12-26T02:43:14.883Z,1.04
2022-12-26T02:44:15.025Z,1.04
2022-12-26T02:45:15.177Z,1.04
2022-12-26T02:46:15.328Z,1.04
2022-12-26T02:47:15.423Z,1.04
2022-12-26T02:48:15.528Z,1.04
2022-12-26T02:49:15.673Z,1.04
2022-12-26T02:50:15.825Z,1.04
2022-12-26T02:51:15.995Z,1.04
2022-12-26T02:52:16.147Z,1.04
2022-12-26T02:53:16.305Z,1.04
2022-12-26T02:54:16.459Z,1.04
2022-12-26T02:55:16.604Z,1.04
2022-12-26T02:56:16.752Z,1.04
2022-12-26T02:57:16.917Z,1.04
2022-12-26T02:58:17.068Z,1.04
2022-12-26T02:59:17.209Z,1.04
2022-12-26T03:00:17.355Z,1.04
2022-12-26T03:01:17.590Z,1.04
2022-12-26T03:02:17.758Z,1.04
2022-12-26T03:03:17.830Z,1.04
2022-12-26T03:04:17.944Z,1.04
2022-12-26T03:05:18.059Z,1.04
2022-12-26T03:06:18.198Z,1.04
2022-12-26T03:07:18.301Z,1.04
2022-12-26T03:08:18.462Z,1.04
2022-12-26T03:09:18.608Z,1.04
2022-12-26T03:10:18.771Z,1.04
2022-12-26T03:11:18.922Z,1.04
2022-12-26T03:12:19.025Z,1.04
2022-12-26T03:13:19.171Z,1.04
2022-12-26T03:14:19.321Z,1.04
2022-12-26T03:15:19.476Z,1.04
2022-12-26T03:16:19.645Z,1.04
2022-12-26T03:17:19.753Z,1.04
2022-12-26T03:18:19.886Z,1.04
2022-12-26T03:19:20.028Z,1.04
2022-12-26T03:20:20.179Z,1.04
2022-12-26T03:21:20.336Z,1.04
2022-12-26T03:22:20.498Z,1.04
2022-12-26T03:23:20.632Z,1.04
2022-12-26T03:24:20.772Z,1.04
2022-12-26T03:25:20.937Z,1.04
2022-12-26T03:26:21.090Z,1.04
2022-12-26T03:27:21.243Z,1.04
2022-12-26T03:28:21.392Z,1.04
2022-12-26T03:29:21.538Z,1.04
2022-12-26T03:30:22.365Z,1.04
2022-12-26T03:31:21.948Z,1.04
2022-12-26T03:32:21.946Z,1.04
2022-12-26T03:33:22.044Z,1.04
2022-12-26T03:34:22.196Z,1.04
2022-12-26T03:35:22.927Z,1.04
2022-12-26T03:36:22.831Z,1.04
2022-12-26T03:37:22.963Z,1.04
2022-12-26T03:38:23.145Z,1.04
2022-12-26T03:39:23.284Z,1.04
2022-12-26T03:40:23.096Z,1.04
2022-12-26T03:41:23.591Z,1.04
2022-12-26T03:42:23.747Z,1.04
2022-12-26T03:43:23.890Z,1.04
2022-12-26T03:44:24.046Z,1.04
2022-12-26T03:45:23.864Z,1.04
2022-12-26T03:46:24.020Z,1.04
2022-12-26T03:47:24.021Z,1.04
2022-12-26T03:48:24.170Z,1.04
2022-12-26T03:49:24.331Z,1.04
2022-12-26T03:50:24.480Z,1.04
2022-12-26T03:51:24.631Z,1.04
2022-12-26T03:52:24.768Z,1.04
2022-12-26T03:53:24.942Z,1.04
2022-12-26T03:54:25.039Z,1.04
2022-12-26T03:55:25.188Z,1.04
2022-12-26T03:56:25.350Z,1.04
2022-12-26T03:57:25.498Z,1.04
2022-12-26T03:58:25.637Z,1.04
2022-12-26T03:59:25.762Z,1.04
2022-12-26T04:00:25.895Z,1.04
2022-12-26T04:01:26.119Z,1.04
2022-12-26T04:02:26.307Z,1.04
2022-12-26T04:03:26.402Z,1.04
2022-12-26T04:04:26.498Z,1.04
2022-12-26T04:05:26.658Z,1.04
2022-12-26T04:06:26.804Z,1.04
2022-12-26T04:07:26.974Z,1.04
2022-12-26T04:08:27.069Z,1.04
2022-12-26T04:09:27.204Z,1.04
2022-12-26T04:10:27.377Z,1.04
2022-12-26T04:11:27.522Z,1.04
2022-12-26T04:12:27.651Z,1.04
2022-12-26T04:13:27.798Z,1.04
2022-12-26T04:14:27.966Z,1.04
2022-12-26T04:15:28.153Z,1.04
2022-12-26T04:16:28.255Z,1.04
2022-12-26T04:17:28.407Z,1.04
2022-12-26T04:18:28.566Z,1.04
2022-12-26T04:19:28.704Z,1.04
2022-12-26T04:20:28.871Z,1.04
2022-12-26T04:21:29.020Z,1.04
2022-12-26T04:22:29.175Z,1.04
2022-12-26T04:23:29.342Z,1.04
2022-12-26T04:24:29.490Z,1.04
2022-12-26T04:25:49.104Z,1.04
2022-12-26T04:26:29.735Z,1.04
2022-12-26T04:27:29.885Z,1.04
2022-12-26T04:28:30.028Z,1.04
2022-12-26T04:29:30.186Z,1.04
2022-12-26T04:30:30.312Z,1.04
2022-12-26T04:31:30.530Z,1.04
2022-12-26T04:32:30.647Z,1.04
2022-12-26T04:33:30.800Z,1.04
2022-12-26T04:34:30.937Z,1.04
2022-12-26T04:35:31.097Z,1.04
2022-12-26T04:36:31.185Z,1.04
2022-12-26T04:37:31.296Z,1.04
2022-12-26T04:38:31.448Z,1.04
2022-12-26T04:39:31.607Z,1.04
2022-12-26T04:40:31.759Z,1.04
2022-12-26T04:41:31.891Z,1.04
2022-12-26T04:42:32.013Z,1.04
2022-12-26T04:43:47.668Z,1.04
2022-12-26T04:44:32.301Z,1.04
2022-12-26T04:45:32.442Z,1.04
2022-12-26T04:46:32.695Z,1.04
2022-12-26T04:47:32.761Z,1.04
2022-12-26T04:48:32.855Z,1.04
2022-12-26T04:49:33.006Z,1.04
2022-12-26T04:50:33.125Z,1.04
2022-12-26T04:51:33.267Z,1.04
2022-12-26T04:52:33.426Z,1.04
2022-12-26T04:53:34.024Z,1.04
2022-12-26T04:54:33.675Z,1.04
2022-12-26T04:55:33.845Z,1.04
2022-12-26T04:56:33.980Z,1.04
2022-12-26T04:57:34.120Z,1.04
2022-12-26T04:58:34.270Z,1.04
2022-12-26T04:59:34.429Z,1.04
2022-12-26T05:00:34.518Z,1.04
2022-12-26T05:01:34.813Z,1.04
2022-12-26T05:02:35.054Z,1.04
2022-12-26T05:03:34.964Z,1.04
2022-12-26T05:04:35.088Z,1.04
2022-12-26T05:05:35.230Z,1.04
2022-12-26T05:06:35.384Z,1.04
2022-12-26T05:07:35.544Z,1.04
2022-12-26T05:08:35.648Z,1.04
2022-12-26T05:09:35.790Z,1.04
2022-12-26T05:10:35.874Z,1.04
2022-12-26T05:11:36.060Z,1.04
2022-12-26T05:12:36.172Z,1.04
2022-12-26T05:13:36.383Z,1.04
2022-12-26T05:14:36.527Z,1.04
2022-12-26T05:15:36.680Z,1.04
2022-12-26T05:16:36.748Z,1.04
2022-12-26T05:17:36.895Z,1.04
2022-12-26T05:18:37.059Z,1.04
2022-12-26T05:19:37.211Z,1.04
2022-12-26T05:20:37.358Z,1.04
2022-12-26T05:21:37.512Z,1.04
2022-12-26T05:22:37.657Z,1.04
2022-12-26T05:23:37.810Z,1.04
2022-12-26T05:24:37.950Z,1.04
2022-12-26T05:25:38.120Z,1.04
2022-12-26T05:26:38.262Z,1.04
2022-12-26T05:27:38.415Z,1.04
2022-12-26T05:28:38.572Z,1.04
2022-12-26T05:29:38.728Z,1.04
2022-12-26T05:30:38.873Z,1.04
2022-12-26T05:31:39.092Z,1.04
2022-12-26T05:32:39.131Z,1.04
2022-12-26T05:33:39.235Z,1.04
2022-12-26T05:34:39.376Z,1.04
2022-12-26T05:35:39.468Z,1.04
2022-12-26T05:36:39.644Z,1.04
2022-12-26T05:37:39.769Z,1.04
2022-12-26T05:38:39.930Z,1.04
2022-12-26T05:39:40.084Z,1.04
2022-12-26T05:40:40.236Z,1.04
2022-12-26T05:41:40.398Z,1.04
2022-12-26T05:42:40.499Z,1.04
2022-12-26T05:43:40.907Z,1.04
2022-12-26T05:44:40.793Z,1.04
2022-12-26T05:45:40.878Z,1.04
2022-12-26T05:46:41.028Z,1.04
2022-12-26T05:47:41.101Z,1.04
2022-12-26T05:48:41.252Z,1.04
2022-12-26T05:49:41.392Z,1.04
2022-12-26T05:50:41.545Z,1.04
2022-12-26T05:51:41.645Z,1.04
2022-12-26T05:52:41.803Z,1.04
2022-12-26T05:53:41.983Z,1.04
2022-12-26T05:54:42.116Z,1.04
2022-12-26T05:55:42.271Z,1.04
2022-12-26T05:56:47.527Z,1.04
2022-12-26T05:57:42.503Z,1.04
2022-12-26T05:58:42.664Z,1.04
2022-12-26T05:59:42.807Z,1.04
2022-12-26T06:00:42.901Z,1.04
2022-12-26T06:01:43.070Z,1.04
2022-12-26T06:02:43.148Z,1.04
2022-12-26T06:03:43.510Z,1.04
2022-12-26T06:04:43.422Z,1.04
2022-12-26T06:05:43.557Z,1.04
2022-12-26T06:06:43.679Z,1.04
2022-12-26T06:07:43.828Z,1.04
2022-12-26T06:08:43.983Z,1.04
2022-12-26T06:09:44.134Z,1.04
2022-12-26T06:10:44.291Z,1.04
2022-12-26T06:11:48.673Z,1.04
2022-12-26T06:12:44.596Z,1.04
2022-12-26T06:13:44.724Z,1.04
2022-12-26T06:14:44.888Z,1.04
2022-12-26T06:15:45.036Z,1.04
2022-12-26T06:16:45.179Z,1.04
2022-12-26T06:17:45.291Z,1.04
2022-12-26T06:18:45.385Z,1.04
2022-12-26T06:19:46.972Z,1.04
2022-12-26T06:20:45.689Z,1.04
2022-12-26T06:21:45.857Z,1.04
2022-12-26T06:22:46.004Z,1.04
2022-12-26T06:23:46.126Z,1.04
2022-12-26T06:24:46.348Z,2
2022-12-26T06:25:46.425Z,2
2022-12-26T06:26:46.632Z,2
2022-12-26T06:27:46.795Z,2
2022-12-26T06:28:46.909Z,3.04
2022-12-26T06:29:47.023Z,3.04
2022-12-26T06:30:47.155Z,4
2022-12-26T06:31:47.467Z,4
2022-12-26T06:32:47.471Z,5.04
2022-12-26T06:33:47.600Z,5.04
2022-12-26T06:34:47.755Z,6
2022-12-26T06:35:47.910Z,7.04
2022-12-26T06:36:48.074Z,9.04
2022-12-26T06:37:48.213Z,10
2022-12-26T06:38:48.373Z,11.04
2022-12-26T06:39:48.535Z,13.04
2022-12-26T06:40:48.672Z,16
2022-12-26T06:41:48.807Z,18
2022-12-26T06:42:49.026Z,21.04
2022-12-26T06:43:49.153Z,26
2022-12-26T06:44:49.305Z,31.04
2022-12-26T06:45:49.427Z,37.04
2022-12-26T06:46:49.751Z,42
2022-12-26T06:47:49.735Z,48
2022-12-26T06:48:49.901Z,53.04
2022-12-26T06:49:50.032Z,61.04
2022-12-26T06:50:50.210Z,68
2022-12-26T06:51:50.338Z,79.04
2022-12-26T06:52:50.490Z,88
2022-12-26T06:53:50.656Z,58
2022-12-26T06:54:50.807Z,66
2022-12-26T06:55:50.889Z,74
2022-12-26T06:56:51.052Z,85.04
2022-12-26T06:57:51.202Z,96
2022-12-26T06:58:51.368Z,110
2022-12-26T06:59:51.497Z,123.04
2022-12-26T07:00:51.671Z,137.04
2022-12-26T07:01:51.906Z,155.04
2022-12-26T07:02:51.937Z,170.08
2022-12-26T07:03:52.223Z,185.12
2022-12-26T07:04:52.200Z,207.04
2022-12-26T07:05:52.356Z,226.08
2022-12-26T07:06:52.508Z,244
2022-12-26T07:07:52.672Z,269.12
2022-12-26T07:08:52.848Z,287.04
2022-12-26T07:09:52.955Z,308
2022-12-26T07:10:53.124Z,333.12
2022-12-26T07:11:53.275Z,369.28
2022-12-26T07:12:53.450Z,401.28
2022-12-26T07:13:53.532Z,424
2022-12-26T07:14:58.021Z,456
2022-12-26T07:15:53.863Z,477.12
2022-12-26T07:16:54.000Z,499.2
2022-12-26T07:17:54.033Z,520
2022-12-26T07:18:54.190Z,545.28
2022-12-26T07:19:54.334Z,561.28
2022-12-26T07:20:54.494Z,579.2
2022-12-26T07:21:54.592Z,605.12
2022-12-26T07:22:54.752Z,643.2
2022-12-26T07:23:54.885Z,671.36
2022-12-26T07:24:55.045Z,709.12
2022-12-26T07:25:55.198Z,736
2022-12-26T07:26:55.342Z,758.4
2022-12-26T07:27:55.495Z,788.48
2022-12-26T07:28:55.650Z,810.24
2022-12-26T07:29:55.823Z,831.36
2022-12-26T07:30:55.934Z,863.36
2022-12-26T07:31:56.191Z,889.6
2022-12-26T07:32:56.189Z,922.24
2022-12-26T07:33:56.288Z,947.2
2022-12-26T07:34:56.443Z,966.4
2022-12-26T07:35:56.615Z,1021.44
2022-12-26T07:36:56.748Z,1081.6
2022-12-26T07:37:56.910Z,1158.4
2022-12-26T07:38:57.092Z,1279.36
2022-12-26T07:39:59.290Z,1424.64
2022-12-26T07:40:57.365Z,1515.52
2022-12-26T07:41:57.553Z,1552.64
2022-12-26T07:42:57.687Z,1568
2022-12-26T07:43:57.835Z,1532.16
2022-12-26T07:44:57.984Z,1461.76
2022-12-26T07:45:58.163Z,1483.52
2022-12-26T07:46:58.239Z,1550.08
2022-12-26T07:47:58.391Z,1655.04
2022-12-26T07:48:58.528Z,1797.12
2022-12-26T07:49:58.691Z,1920
2022-12-26T07:50:58.829Z,1985.28
2022-12-26T07:51:58.985Z,2200.32
2022-12-26T07:52:59.140Z,2220.8
2022-12-26T07:53:59.272Z,2434.56
2022-12-26T07:54:59.463Z,2565.12
2022-12-26T07:55:59.552Z,2620.16
2022-12-26T07:57:15.382Z,2698.24
2022-12-26T07:57:59.846Z,2772.48
2022-12-26T07:58:59.984Z,2700.8
2022-12-26T08:00:00.149Z,2626.56
2022-12-26T08:01:00.329Z,2607.36
2022-12-26T08:02:00.500Z,2430.72
2022-12-26T08:03:06.694Z,2112
2022-12-26T08:04:00.734Z,2103.04
2022-12-26T08:05:00.950Z,2152.96
2022-12-26T08:06:00.999Z,2199.04
2022-12-26T08:07:01.152Z,2382.08
2022-12-26T08:08:01.324Z,2405.12
2022-12-26T08:09:01.425Z,2245.12
2022-12-26T08:10:01.575Z,1998.08
2022-12-26T08:11:01.708Z,1802.24
2022-12-26T08:12:01.839Z,1783.04
2022-12-26T08:13:01.954Z,1734.4
2022-12-26T08:14:02.130Z,1694.72
2022-12-26T08:15:02.254Z,1680.64
2022-12-26T08:16:02.349Z,1523.2
2022-12-26T08:17:02.567Z,1365.76
2022-12-26T08:18:02.667Z,1219.2
2022-12-26T08:19:02.835Z,1146.24
2022-12-26T08:20:03.003Z,1146.24
2022-12-26T08:21:03.122Z,1195.52
2022-12-26T08:22:03.263Z,1255.04
2022-12-26T08:23:03.380Z,1416.96
2022-12-26T08:24:03.519Z,1611.52
2022-12-26T08:25:03.679Z,1775.36
2022-12-26T08:26:03.825Z,1948.16
2022-12-26T08:27:03.989Z,2167.04
2022-12-26T08:28:04.133Z,2394.88
2022-12-26T08:29:04.273Z,2634.24
2022-12-26T08:30:04.427Z,2746.88
2022-12-26T08:31:04.585Z,2859.52
2022-12-26T08:32:04.746Z,3092.48
2022-12-26T08:33:04.889Z,3338.24
2022-12-26T08:34:05.036Z,3543.04
2022-12-26T08:35:05.183Z,3799.04
2022-12-26T08:36:05.376Z,4096
2022-12-26T08:37:05.509Z,4359.68
2022-12-26T08:38:05.650Z,4712.96
2022-12-26T08:39:05.787Z,4966.4
2022-12-26T08:40:05.933Z,4961.28
2022-12-26T08:41:06.064Z,4736
2022-12-26T08:42:06.197Z,4497.92
2022-12-26T08:43:21.314Z,4487.68
2022-12-26T08:44:28.422Z,4613.12
2022-12-26T08:45:06.596Z,4794.88
2022-12-26T08:46:06.767Z,4999.68
2022-12-26T08:47:06.905Z,5117.44
2022-12-26T08:48:07.071Z,5207.04
2022-12-26T08:49:07.207Z,5299.2
2022-12-26T08:50:07.368Z,5406.72
2022-12-26T08:51:07.524Z,5478.4
2022-12-26T08:52:07.666Z,5504
2022-12-26T08:53:07.794Z,5544.96
2022-12-26T08:54:07.933Z,5534.72
2022-12-26T08:55:08.077Z,5360.64
2022-12-26T08:56:08.237Z,5099.52
2022-12-26T08:57:08.373Z,4925.44
2022-12-26T08:58:08.577Z,4636.16
2022-12-26T08:59:08.661Z,4346.88
2022-12-26T09:00:08.852Z,4930.56
2022-12-26T09:01:09.156Z,4290.56
2022-12-26T09:02:09.231Z,5176.32
2022-12-26T09:03:09.207Z,6589.44
2022-12-26T09:04:09.284Z,8181.76
2022-12-26T09:05:09.441Z,9016.319
2022-12-26T09:06:09.583Z,9548.8
2022-12-26T09:07:09.738Z,10224.64
2022-12-26T09:08:09.907Z,11079.68
2022-12-26T09:09:10.039Z,10163.2
2022-12-26T09:10:10.148Z,8862.72
2022-12-26T09:11:10.286Z,10040.319
2022-12-26T09:12:10.438Z,9431.04
2022-12-26T09:13:10.593Z,8202.24
2022-12-26T09:14:10.709Z,8637.439
2022-12-26T09:15:10.804Z,8913.92
2022-12-26T09:16:10.937Z,9415.68
2022-12-26T09:17:11.132Z,9989.12
2022-12-26T09:18:11.242Z,10506.24
2022-12-26T09:19:11.418Z,9902.08
2022-12-26T09:20:11.556Z,9410.56
2022-12-26T09:21:11.715Z,9497.6
2022-12-26T09:22:11.877Z,10403.84
2022-12-26T09:23:12.003Z,11079.68
2022-12-26T09:24:12.167Z,10526.72
2022-12-26T09:25:12.367Z,9548.8
2022-12-26T09:26:12.518Z,8888.319
2022-12-26T09:27:12.656Z,8637.439
2022-12-26T09:28:12.814Z,7946.24
2022-12-26T09:29:12.976Z,6917.12
2022-12-26T09:30:13.068Z,6118.4
2022-12-26T09:31:13.267Z,5386.24
2022-12-26T09:32:13.315Z,4710.4
2022-12-26T09:33:13.480Z,4277.76
2022-12-26T09:34:13.622Z,3973.12
2022-12-26T09:35:13.759Z,3852.8
2022-12-26T09:36:14.991Z,3960.32
2022-12-26T09:37:14.079Z,4241.92
2022-12-26T09:38:14.228Z,4431.36
2022-12-26T09:39:14.328Z,4375.04
2022-12-26T09:40:14.444Z,4034.56
2022-12-26T09:41:14.587Z,3691.52
2022-12-26T09:42:14.739Z,3333.12
2022-12-26T09:43:14.902Z,3005.44
2022-12-26T09:44:15.043Z,2792.96
2022-12-26T09:45:15.198Z,2990.08
2022-12-26T09:46:15.401Z,3645.44
2022-12-26T09:47:15.451Z,4042.24
2022-12-26T09:48:15.598Z,4213.76
2022-12-26T09:49:15.756Z,4193.28
2022-12-26T09:50:15.901Z,4116.48
2022-12-26T09:51:16.044Z,4124.16
2022-12-26T09:52:16.143Z,4096
2022-12-26T09:53:16.305Z,3950.08
2022-12-26T09:54:16.416Z,3781.12
2022-12-26T09:55:16.588Z,3658.24
2022-12-26T09:56:36.849Z,3461.12
2022-12-26T09:57:16.826Z,3212.8
2022-12-26T09:58:16.964Z,2915.84
2022-12-26T09:59:17.119Z,2690.56
2022-12-26T10:00:17.218Z,2457.6
2022-12-26T10:01:17.479Z,2186.24
2022-12-26T10:02:17.558Z,2266.88
2022-12-26T10:03:17.632Z,2698.24
2022-12-26T10:04:17.769Z,2616.32
2022-12-26T10:05:17.931Z,2530.56
2022-12-26T10:06:18.084Z,2624
2022-12-26T10:07:18.279Z,2664.96
2022-12-26T10:08:18.411Z,2688
2022-12-26T10:09:18.539Z,2752
2022-12-26T10:10:18.646Z,2831.36
2022-12-26T10:11:18.776Z,2990.08
2022-12-26T10:12:18.887Z,3143.68
2022-12-26T10:13:19.030Z,3338.24
2022-12-26T10:14:21.506Z,3512.32
2022-12-26T10:15:19.345Z,3681.28
2022-12-26T10:16:19.526Z,3909.12
2022-12-26T10:17:19.585Z,4065.28
2022-12-26T10:18:19.693Z,4288
2022-12-26T10:19:19.848Z,4687.36
2022-12-26T10:20:20.024Z,5004.8
2022-12-26T10:21:20.169Z,5201.92
2022-12-26T10:22:20.298Z,5427.2
2022-12-26T10:23:20.382Z,5560.32
2022-12-26T10:24:20.542Z,5632
2022-12-26T10:25:20.659Z,5591.04
2022-12-26T10:26:20.804Z,5391.36
2022-12-26T10:27:20.977Z,5104.64
2022-12-26T10:28:21.121Z,4876.8
2022-12-26T10:29:21.269Z,4733.44
2022-12-26T10:30:21.419Z,4728.32
2022-12-26T10:31:21.582Z,4761.6
2022-12-26T10:32:27.617Z,4664.32
2022-12-26T10:33:21.866Z,4559.36
2022-12-26T10:34:22.051Z,4421.12
2022-12-26T10:35:22.179Z,4275.2
2022-12-26T10:36:22.316Z,4405.76
2022-12-26T10:37:22.475Z,4810.24
2022-12-26T10:38:25.795Z,5125.12
2022-12-26T10:39:22.793Z,5355.52
2022-12-26T10:40:22.934Z,5452.8
2022-12-26T10:41:23.071Z,5360.64
2022-12-26T10:42:23.228Z,5053.44
2022-12-26T10:43:23.387Z,4741.12
2022-12-26T10:44:27.512Z,4853.76
2022-12-26T10:45:23.671Z,5214.72
2022-12-26T10:46:23.836Z,5437.44
2022-12-26T10:47:23.983Z,5107.2
2022-12-26T10:48:24.149Z,4951.04
2022-12-26T10:49:24.284Z,5053.44
2022-12-26T10:50:27.516Z,5329.92
2022-12-26T10:51:24.607Z,5928.96
2022-12-26T10:52:24.706Z,6481.92
2022-12-26T10:53:24.855Z,7080.96
2022-12-26T10:54:24.992Z,7475.2
2022-12-26T10:55:26.999Z,7623.68
2022-12-26T10:56:25.304Z,7767.04
2022-12-26T10:57:25.455Z,8309.76
2022-12-26T10:58:25.607Z,8913.92
2022-12-26T10:59:25.782Z,9774.08
2022-12-26T11:00:25.901Z,10833.92
2022-12-26T11:01:26.118Z,11468.8
2022-12-26T11:02:26.260Z,11591.68
2022-12-26T11:03:26.430Z,11499.52
2022-12-26T11:04:44.938Z,11571.2
2022-12-26T11:05:48.711Z,11407.359
2022-12-26T11:06:26.727Z,11018.24
2022-12-26T11:07:26.877Z,10772.479
2022-12-26T11:08:27.041Z,10536.96
2022-12-26T11:09:27.168Z,10547.2
2022-12-26T11:10:27.272Z,10439.68
2022-12-26T11:11:27.405Z,9937.92
2022-12-26T11:12:27.537Z,9835.52
2022-12-26T11:13:27.673Z,9451.52
2022-12-26T11:14:31.792Z,8632.319
2022-12-26T11:15:27.928Z,8012.8
2022-12-26T11:16:28.157Z,7290.88
2022-12-26T11:17:28.239Z,6553.6
2022-12-26T11:18:28.387Z,5831.68
2022-12-26T11:19:28.542Z,5237.76
2022-12-26T11:20:28.710Z,4989.44
2022-12-26T11:21:28.848Z,4689.92
2022-12-26T11:22:29.006Z,4124.16
2022-12-26T11:23:29.142Z,3540.48
2022-12-26T11:24:29.283Z,3000.32
2022-12-26T11:25:29.428Z,2698.24
2022-12-26T11:26:29.562Z,2775.04
2022-12-26T11:27:29.694Z,3089.92
2022-12-26T11:28:29.871Z,3320.32
2022-12-26T11:29:29.997Z,3315.2
2022-12-26T11:30:30.131Z,3215.36
2022-12-26T11:31:30.366Z,3412.48
2022-12-26T11:32:30.475Z,3793.92
2022-12-26T11:33:30.601Z,4431.36
2022-12-26T11:34:30.762Z,4805.12
2022-12-26T11:35:30.900Z,4807.68
2022-12-26T11:36:31.133Z,4751.36
2022-12-26T11:37:31.192Z,4807.68
2022-12-26T11:38:31.312Z,4782.08
2022-12-26T11:39:31.451Z,4769.28
2022-12-26T11:40:31.576Z,4892.16
2022-12-26T11:41:31.753Z,4869.12
2022-12-26T11:42:31.918Z,4779.52
2022-12-26T11:43:32.067Z,4618.24
2022-12-26T11:44:32.225Z,4400.64
2022-12-26T11:45:37.173Z,4198.4
2022-12-26T11:46:32.517Z,4282.88
2022-12-26T11:47:32.639Z,4518.4
2022-12-26T11:48:32.774Z,4651.52
2022-12-26T11:49:32.878Z,4648.96
2022-12-26T11:50:33.030Z,4695.04
2022-12-26T11:51:33.167Z,4664.32
2022-12-26T11:52:33.330Z,4344.32
2022-12-26T11:53:33.484Z,3927.04
2022-12-26T11:54:33.653Z,3653.12
2022-12-26T11:55:33.776Z,3427.84
2022-12-26T11:56:33.873Z,3343.36
2022-12-26T11:57:34.041Z,3412.48
2022-12-26T11:58:34.184Z,3404.8
2022-12-26T11:59:34.339Z,3235.84
2022-12-26T12:00:34.485Z,2951.68
2022-12-26T12:01:34.695Z,2677.76
2022-12-26T12:02:34.831Z,2576.64
2022-12-26T12:03:35.008Z,2556.16
2022-12-26T12:04:35.128Z,2513.92
2022-12-26T12:05:35.246Z,2380.8
2022-12-26T12:06:35.396Z,2123.52
2022-12-26T12:07:35.546Z,1936.64
2022-12-26T12:08:35.711Z,2001.92
2022-12-26T12:09:35.863Z,2481.92
2022-12-26T12:10:36.011Z,2833.92
2022-12-26T12:11:36.148Z,3287.04
2022-12-26T12:12:36.320Z,3376.64
2022-12-26T12:13:36.419Z,3389.44
2022-12-26T12:14:36.574Z,3422.72
2022-12-26T12:15:36.667Z,3635.2
2022-12-26T12:16:36.856Z,4085.76
2022-12-26T12:17:36.979Z,4344.32
2022-12-26T12:18:37.115Z,3540.48
2022-12-26T12:19:37.282Z,2987.52
2022-12-26T12:20:37.421Z,2465.28
2022-12-26T12:21:37.597Z,1793.28
2022-12-26T12:22:37.735Z,1637.12
2022-12-26T12:23:37.863Z,1687.04
2022-12-26T12:24:37.980Z,1626.88
2022-12-26T12:25:38.133Z,1524.48
2022-12-26T12:26:38.297Z,1432.32
2022-12-26T12:27:38.444Z,1491.2
2022-12-26T12:28:38.573Z,1493.76
2022-12-26T12:29:38.757Z,1619.2
2022-12-26T12:30:38.890Z,1678.08
2022-12-26T12:31:39.059Z,1582.08
2022-12-26T12:32:39.188Z,1269.12
2022-12-26T12:33:39.335Z,1233.28
2022-12-26T12:34:39.433Z,1326.08
2022-12-26T12:35:39.581Z,1338.88
2022-12-26T12:36:39.732Z,1029.12
2022-12-26T12:37:39.892Z,1038.08
2022-12-26T12:38:40.049Z,1254.4
2022-12-26T12:39:40.206Z,1204.48
2022-12-26T12:40:40.347Z,1015.04
2022-12-26T12:41:40.463Z,1204.48
2022-12-26T12:42:40.619Z,1424.64
2022-12-26T12:43:40.740Z,1345.28
2022-12-26T12:44:40.862Z,1203.2
2022-12-26T12:45:40.956Z,1063.04
2022-12-26T12:46:41.093Z,1036.16
2022-12-26T12:47:41.209Z,959.36
2022-12-26T12:48:41.359Z,698.24
2022-12-26T12:49:41.532Z,560
2022-12-26T12:50:41.661Z,521.28